Time;durP1;ratioP1;P1;durP2;ratioP2;P2;SDS_P1;SDS_P2;PMS_P1;PMS_P2;Temp;Humidity;BMP_temperature;BMP_pressure;BME280_temperature;BME280_humidity;BME280_pressure;Samples;Min_cycle;Max_cycle;Signal;HPM_P1;HPM_P2
2022/08/11 00:00:06;;;;;;;0.20;0.20;;;18.70;99.90;;;;;;5060799;28;20049;-82
2022/08/11 00:02:34;;;;;;;0.20;0.20;;;18.70;99.90;;;;;;5067961;28;20677;-81
2022/08/11 00:05:04;;;;;;;0.17;0.17;;;18.60;99.90;;;;;;5079264;28;20063;-81
2022/08/11 00:07:30;;;;;;;0.10;0.10;;;18.60;99.90;;;;;;5072554;28;20048;-82
2022/08/11 00:09:58;;;;;;;0.10;0.10;;;18.60;99.90;;;;;;5067624;28;20059;-82
2022/08/11 00:12:24;;;;;;;0.20;0.20;;;18.60;99.90;;;;;;5077437;28;20118;-82
2022/08/11 00:15:00;;;;;;;0.10;0.10;;;18.60;99.90;;;;;;5079418;28;20869;-82
2022/08/11 00:17:31;;;;;;;0.20;0.20;;;18.50;99.90;;;;;;5069455;28;20115;-82
2022/08/11 00:20:08;;;;;;;0.20;0.20;;;18.50;99.90;;;;;;5068054;28;20571;-82
2022/08/11 00:22:36;;;;;;;0.20;0.20;;;18.50;99.90;;;;;;5058614;28;20033;-82
2022/08/11 00:25:17;;;;;;;0.15;0.15;;;18.50;99.90;;;;;;5073559;28;20044;-82
2022/08/11 00:27:45;;;;;;;0.20;0.20;;;18.50;99.90;;;;;;5067742;28;20451;-82
2022/08/11 00:30:13;;;;;;;0.20;0.20;;;18.50;99.90;;;;;;5074483;28;20036;-81
2022/08/11 00:32:42;;;;;;;0.28;0.28;;;18.50;99.90;;;;;;5074833;28;20033;-82
2022/08/11 00:35:13;;;;;;;0.20;0.20;;;18.40;99.90;;;;;;5076030;28;20407;-82
2022/08/11 00:37:44;;;;;;;0.20;0.20;;;18.40;99.90;;;;;;5058708;28;20060;-82
2022/08/11 00:40:21;;;;;;;0.20;0.20;;;18.40;99.90;;;;;;5064737;28;20053;-82
2022/08/11 00:43:10;;;;;;;0.10;0.10;;;18.40;99.90;;;;;;5059146;28;20087;-82
2022/08/11 00:45:44;;;;;;;0.13;0.13;;;18.40;99.90;;;;;;5062828;28;20103;-83
2022/08/11 00:48:27;;;;;;;0.20;0.20;;;18.40;99.90;;;;;;5069744;28;20045;-82
2022/08/11 00:51:04;;;;;;;0.10;0.10;;;18.40;99.90;;;;;;5062700;28;20519;-82
2022/08/11 00:53:42;;;;;;;0.20;0.20;;;18.30;99.90;;;;;;5071659;28;20049;-82
2022/08/11 00:56:37;;;;;;;0.20;0.20;;;18.30;99.90;;;;;;5055058;28;20055;-82
2022/08/11 00:59:25;;;;;;;0.20;0.20;;;18.30;99.90;;;;;;5059026;28;20550;-82
2022/08/11 01:02:38;;;;;;;0.20;0.20;;;18.30;99.90;;;;;;5051831;28;20582;-82
2022/08/11 01:05:22;;;;;;;0.15;0.15;;;18.30;99.90;;;;;;5044924;28;20053;-82
2022/08/11 01:08:20;;;;;;;0.20;0.20;;;18.20;99.90;;;;;;5071613;28;20087;-82
2022/08/11 01:11:18;;;;;;;0.20;0.20;;;18.20;99.90;;;;;;5064479;28;20048;-82
2022/08/11 01:13:58;;;;;;;0.10;0.10;;;18.20;99.90;;;;;;5057959;28;20057;-83
2022/08/11 01:16:35;;;;;;;0.17;0.17;;;18.20;99.90;;;;;;5074402;28;20127;-82
2022/08/11 01:19:27;;;;;;;0.17;0.17;;;18.20;99.90;;;;;;5064115;28;20457;-82
2022/08/11 01:22:22;;;;;;;0.10;0.10;;;18.20;99.90;;;;;;5066022;28;20047;-82
2022/08/11 01:25:26;;;;;;;0.20;0.20;;;18.10;99.90;;;;;;5061030;28;20507;-81
2022/08/11 01:28:26;;;;;;;0.10;0.10;;;18.10;99.90;;;;;;5067589;28;20037;-81
2022/08/11 01:31:19;;;;;;;0.20;0.20;;;18.10;99.90;;;;;;5062039;28;20136;-82
2022/08/11 01:34:09;;;;;;;0.20;0.20;;;18.00;99.90;;;;;;5070609;28;20481;-81
2022/08/11 01:36:44;;;;;;;0.20;0.20;;;18.00;99.90;;;;;;5070001;28;20040;-82
2022/08/11 01:39:48;;;;;;;0.20;0.20;;;18.00;99.90;;;;;;5052434;28;20045;-82
2022/08/11 01:46:04;;;;;;;0.20;0.20;;;18.00;99.90;;;;;;5069080;28;20052;-82
2022/08/11 01:48:44;;;;;;;0.13;0.13;;;18.00;99.90;;;;;;5068427;28;20068;-82
2022/08/11 01:51:29;;;;;;;0.20;0.20;;;17.90;99.90;;;;;;5056276;28;20044;-82
2022/08/11 01:54:40;;;;;;;0.20;0.20;;;17.90;99.90;;;;;;5063146;28;20607;-82
2022/08/11 01:57:15;;;;;;;0.20;0.20;;;17.90;99.90;;;;;;5023730;28;20206;-81
2022/08/11 01:59:48;;;;;;;0.13;0.13;;;17.80;99.90;;;;;;5027203;28;20049;-82
2022/08/11 02:02:52;;;;;;;0.20;0.20;;;17.80;99.90;;;;;;5038846;28;20083;-81
2022/08/11 02:05:45;;;;;;;0.10;0.10;;;17.70;99.90;;;;;;5070622;28;20052;-82
2022/08/11 02:08:33;;;;;;;0.20;0.20;;;17.60;99.90;;;;;;5082716;28;20044;-81
2022/08/11 02:11:29;;;;;;;0.20;0.20;;;17.50;99.90;;;;;;5062534;28;20071;-81
2022/08/11 02:14:20;;;;;;;0.10;0.10;;;17.40;99.90;;;;;;5072476;28;20044;-82
2022/08/11 02:17:04;;;;;;;0.15;0.15;;;17.40;99.90;;;;;;5052902;28;20048;-81
2022/08/11 02:26:02;;;;;;;0.20;0.20;;;17.20;99.90;;;;;;5066192;28;20053;-82
2022/08/11 02:29:05;;;;;;;0.10;0.10;;;17.20;99.90;;;;;;5063322;28;20048;-82
2022/08/11 02:34:43;;;;;;;0.20;0.20;;;17.10;99.90;;;;;;5081353;28;20051;-82
2022/08/11 02:37:23;;;;;;;0.20;0.20;;;17.10;99.90;;;;;;5075059;28;20523;-82
2022/08/11 02:40:21;;;;;;;0.13;0.13;;;17.10;99.90;;;;;;5076238;28;21026;-82
2022/08/11 02:42:47;;;;;;;0.25;0.25;;;17.00;99.90;;;;;;5065921;28;20032;-82
2022/08/11 02:45:35;;;;;;;0.20;0.20;;;17.00;99.90;;;;;;5087228;28;20101;-81
2022/08/11 02:51:39;;;;;;;0.28;0.28;;;16.90;99.90;;;;;;5068393;28;20048;-82
2022/08/11 02:54:40;;;;;;;0.20;0.20;;;16.80;99.90;;;;;;5077359;28;20093;-82
2022/08/11 02:57:16;;;;;;;0.20;0.20;;;16.80;99.90;;;;;;5073028;28;20079;-82
2022/08/11 02:59:49;;;;;;;0.20;0.20;;;16.70;99.90;;;;;;5069371;28;20040;-82
2022/08/11 03:02:42;;;;;;;0.10;0.10;;;16.70;99.90;;;;;;5075613;28;20135;-82
2022/08/11 03:05:10;;;;;;;0.15;0.15;;;16.70;99.90;;;;;;5078649;28;20048;-82
2022/08/11 03:07:39;;;;;;;0.20;0.20;;;16.60;99.90;;;;;;5076298;28;20063;-82
2022/08/11 03:16:43;;;;;;;0.10;0.10;;;16.60;99.90;;;;;;5081585;28;20060;-82
2022/08/11 03:16:45;;;;;;;0.20;0.20;;;16.50;99.90;;;;;;5065825;28;20056;-82
2022/08/11 03:19:14;;;;;;;0.20;0.20;;;16.50;99.90;;;;;;5067773;28;20045;-82
2022/08/11 03:22:07;;;;;;;0.10;0.10;;;16.40;99.90;;;;;;5071107;28;20082;-82
2022/08/11 03:24:45;;;;;;;0.20;0.20;;;16.40;99.90;;;;;;5065639;28;20446;-82
2022/08/11 03:27:35;;;;;;;0.20;0.20;;;16.30;99.90;;;;;;5086391;28;20051;-82
2022/08/11 03:30:52;;;;;;;0.15;0.15;;;16.30;99.90;;;;;;5066810;28;20032;-81
2022/08/11 03:36:32;;;;;;;0.20;0.20;;;16.30;99.90;;;;;;5055803;28;20045;-82
2022/08/11 03:39:07;;;;;;;0.20;0.20;;;16.30;99.90;;;;;;5078234;28;20505;-81
2022/08/11 03:41:41;;;;;;;0.20;0.20;;;16.20;99.90;;;;;;5064851;28;20047;-82
2022/08/11 03:44:36;;;;;;;0.20;0.20;;;16.20;99.90;;;;;;5076153;28;20037;-81
2022/08/11 03:47:16;;;;;;;0.20;0.20;;;16.20;99.90;;;;;;5049891;28;20132;-82
2022/08/11 03:50:00;;;;;;;0.20;0.20;;;16.20;99.90;;;;;;5074197;28;20044;-81
2022/08/11 03:52:33;;;;;;;0.13;0.13;;;16.10;99.90;;;;;;5071731;28;20474;-81
2022/08/11 03:54:58;;;;;;;0.20;0.20;;;16.10;99.90;;;;;;5069893;28;20045;-82
2022/08/11 03:58:05;;;;;;;0.10;0.10;;;16.10;99.90;;;;;;5077545;28;20100;-81
2022/08/11 04:01:01;;;;;;;0.20;0.20;;;16.10;99.90;;;;;;5083551;28;20200;-81
2022/08/11 04:04:09;;;;;;;0.13;0.13;;;16.10;99.90;;;;;;5066691;28;20120;-82
2022/08/11 04:06:50;;;;;;;0.20;0.20;;;16.10;99.90;;;;;;5071000;28;20504;-82
2022/08/11 04:09:37;;;;;;;0.20;0.20;;;16.10;99.90;;;;;;5079205;28;20071;-82
2022/08/11 04:12:08;;;;;;;0.20;0.20;;;16.20;99.90;;;;;;5063977;28;20123;-82
2022/08/11 04:18:18;;;;;;;0.13;0.13;;;16.10;99.90;;;;;;5041588;28;20045;-82
2022/08/11 04:21:08;;;;;;;0.15;0.15;;;16.20;99.90;;;;;;5034606;28;20048;-82
2022/08/11 04:23:42;;;;;;;0.20;0.20;;;;;;;;;;5058749;28;20553;-82
2022/08/11 04:26:42;;;;;;;0.20;0.20;;;16.20;99.90;;;;;;5081216;28;20086;-82
2022/08/11 04:29:27;;;;;;;0.20;0.20;;;16.20;99.90;;;;;;5083854;28;20106;-82
2022/08/11 04:32:15;;;;;;;0.20;0.20;;;16.20;99.90;;;;;;5078217;28;20044;-82
2022/08/11 04:35:06;;;;;;;0.20;0.20;;;16.20;99.90;;;;;;5071962;28;20040;-82
2022/08/11 04:37:46;;;;;;;0.20;0.20;;;16.30;99.90;;;;;;5087937;28;20097;-82
2022/08/11 04:40:31;;;;;;;0.10;0.10;;;16.30;99.90;;;;;;5069181;28;20052;-82
2022/08/11 04:43:21;;;;;;;0.20;0.20;;;16.30;99.90;;;;;;5057588;28;20040;-82
2022/08/11 04:46:02;;;;;;;0.20;0.20;;;16.30;99.90;;;;;;5084531;28;20522;-82
2022/08/11 05:01:39;;;;;;;0.10;0.10;;;16.40;99.90;;;;;;5073800;28;20048;-82
2022/08/11 05:07:07;;;;;;;0.20;0.20;;;16.50;99.90;;;;;;5077933;28;20847;-83
2022/08/11 05:10:11;;;;;;;0.20;0.20;;;16.60;99.90;;;;;;5076913;28;20512;-83
2022/08/11 05:12:52;;;;;;;0.10;0.10;;;16.60;99.90;;;;;;5069377;28;20040;-83
2022/08/11 05:36:00;;;;;;;0.20;0.20;;;17.10;99.90;;;;;;5068787;28;20048;-82
2022/08/11 05:58:03;;;;;;;0.20;0.20;;;17.60;99.90;;;;;;5071034;28;20053;-81
2022/08/11 06:00:30;;;;;;;0.20;0.20;;;17.70;99.90;;;;;;5062269;28;20059;-81
2022/08/11 06:03:00;;;;;;;0.20;0.20;;;17.70;99.90;;;;;;5073725;28;20095;-82
2022/08/11 06:05:37;;;;;;;0.10;0.10;;;17.80;99.90;;;;;;5075782;28;20536;-82
2022/08/11 06:08:07;;;;;;;0.20;0.20;;;17.90;99.90;;;;;;5068238;28;20124;-82
2022/08/11 06:10:35;;;;;;;0.20;0.20;;;17.90;99.90;;;;;;5064337;28;20044;-81
2022/08/11 06:13:03;;;;;;;0.10;0.10;;;18.00;99.90;;;;;;5062786;28;20036;-81
2022/08/11 06:15:31;;;;;;;0.10;0.10;;;18.00;99.90;;;;;;5063446;28;20041;-81
2022/08/11 06:18:01;;;;;;;0.10;0.10;;;18.10;99.90;;;;;;5065185;28;20049;-81
2022/08/11 06:20:31;;;;;;;0.20;0.20;;;18.20;99.90;;;;;;5058470;28;20045;-81
2022/08/11 06:23:08;;;;;;;0.10;0.10;;;18.20;99.90;;;;;;5069613;28;20044;-82
2022/08/11 06:25:35;;;;;;;0.20;0.20;;;18.30;99.90;;;;;;5069283;28;20101;-81
2022/08/11 06:28:05;;;;;;;0.20;0.20;;;18.30;99.90;;;;;;5070302;28;20050;-83
2022/08/11 06:30:41;;;;;;;0.30;0.30;;;18.40;99.90;;;;;;5062641;28;20072;-82
2022/08/11 06:33:28;;;;;;;0.20;0.20;;;18.50;99.90;;;;;;5067707;28;20040;-81
2022/08/11 06:36:17;;;;;;;0.10;0.10;;;18.60;99.90;;;;;;5051977;28;20433;-82
2022/08/11 06:38:46;;;;;;;0.20;0.20;;;18.60;99.90;;;;;;5042198;28;20092;-81
2022/08/11 06:41:29;;;;;;;0.20;0.20;;;18.70;99.90;;;;;;5064065;28;20045;-82
2022/08/11 06:44:13;;;;;;;0.15;0.15;;;18.80;99.90;;;;;;5067741;28;20049;-83
2022/08/11 06:46:49;;;;;;;0.20;0.20;;;18.70;99.90;;;;;;5056920;28;20063;-82
2022/08/11 06:52:08;;;;;;;0.20;0.20;;;18.90;99.90;;;;;;5066675;28;20045;-82
2022/08/11 06:54:40;;;;;;;0.20;0.20;;;19.00;99.90;;;;;;5072492;28;20048;-82
2022/08/11 07:00:26;;;;;;;0.10;0.10;;;19.10;99.90;;;;;;5070124;28;20057;-79
2022/08/11 07:03:11;;;;;;;0.20;0.20;;;19.20;99.90;;;;;;5067491;28;20046;-79
2022/08/11 07:05:36;;;;;;;0.10;0.10;;;19.30;99.90;;;;;;5066630;28;20477;-79
2022/08/11 07:17:47;;;;;;;0.10;0.10;;;19.50;99.90;;;;;;5068340;28;20045;-80
2022/08/11 07:28:56;;;;;;;0.20;0.20;;;19.70;99.90;;;;;;5072254;28;20085;-79
2022/08/11 07:31:34;;;;;;;0.20;0.20;;;19.80;99.90;;;;;;5077008;28;20497;-79
2022/08/11 07:34:21;;;;;;;0.20;0.20;;;19.80;99.90;;;;;;5071642;28;20045;-79
2022/08/11 07:36:58;;;;;;;0.13;0.13;;;19.90;99.90;;;;;;5057785;28;20056;-79
2022/08/11 07:39:26;;;;;;;0.20;0.20;;;19.90;99.90;;;;;;5090857;28;20045;-79
2022/08/11 07:41:55;;;;;;;0.13;0.13;;;19.90;99.90;;;;;;5069646;28;20389;-79
2022/08/11 07:44:24;;;;;;;0.20;0.20;;;20.00;99.90;;;;;;5061856;28;20044;-80
2022/08/11 07:52:31;;;;;;;0.10;0.10;;;20.30;99.90;;;;;;5077184;28;20056;-80
2022/08/11 07:55:03;;;;;;;0.20;0.20;;;20.30;99.90;;;;;;5073290;28;20575;-79
2022/08/11 08:19:36;;;;;;;0.20;0.20;;;21.00;99.90;;;;;;5081890;28;20377;-80
2022/08/11 08:22:05;;;;;;;0.20;0.20;;;21.10;99.90;;;;;;5058174;28;20041;-81
2022/08/11 08:24:32;;;;;;;0.30;0.30;;;21.20;99.90;;;;;;5064784;28;20086;-79
2022/08/11 08:26:58;;;;;;;0.20;0.20;;;21.30;99.90;;;;;;5052053;28;20040;-83
2022/08/11 08:32:18;;;;;;;0.20;0.20;;;21.50;99.90;;;;;;5064705;28;20053;-82
2022/08/11 08:34:51;;;;;;;0.20;0.20;;;21.60;99.90;;;;;;5061635;28;20052;-81
2022/08/11 08:37:19;;;;;;;0.10;0.10;;;21.60;99.90;;;;;;5069927;28;20032;-81
2022/08/11 08:39:47;;;;;;;0.20;0.20;;;21.60;99.90;;;;;;5056668;28;20096;-82
2022/08/11 08:42:23;;;;;;;0.20;0.20;;;21.70;99.90;;;;;;5063164;28;20051;-81
2022/08/11 08:44:57;;;;;;;0.20;0.20;;;21.80;99.90;;;;;;5060301;28;20051;-81
2022/08/11 08:47:25;;;;;;;0.20;0.20;;;21.90;99.90;;;;;;5054835;28;20404;-81
2022/08/11 08:51:32;;;;;;;0.20;0.20;;;22.00;99.90;;;;;;5052286;28;20048;-80
2022/08/11 08:53:13;;;;;;;0.20;0.20;;;22.10;99.90;;;;;;5056295;28;20044;-80
2022/08/11 08:55:41;;;;;;;0.20;0.20;;;22.10;99.90;;;;;;5063202;28;20056;-79
2022/08/11 08:58:08;;;;;;;0.20;0.20;;;22.20;99.90;;;;;;5071922;28;20107;-80
2022/08/11 09:00:44;;;;;;;0.20;0.20;;;22.30;99.90;;;;;;5055731;28;20044;-82
2022/08/11 09:03:10;;;;;;;0.20;0.20;;;22.40;99.90;;;;;;5080524;28;20060;-81
2022/08/11 09:05:36;;;;;;;0.20;0.20;;;22.50;99.90;;;;;;5055086;28;20167;-81
2022/08/11 09:08:03;;;;;;;0.20;0.20;;;22.50;99.90;;;;;;5052098;28;20171;-81
2022/08/11 09:10:29;;;;;;;0.20;0.20;;;22.60;99.90;;;;;;5064792;28;20044;-80
2022/08/11 09:12:56;;;;;;;0.20;0.20;;;22.70;99.90;;;;;;5067417;28;20037;-79
2022/08/11 09:15:23;;;;;;;0.20;0.20;;;22.80;99.90;;;;;;5069880;28;20044;-81
2022/08/11 09:17:52;;;;;;;0.20;0.20;;;22.90;99.90;;;;;;5069589;28;20052;-81
2022/08/11 09:20:24;;;;;;;0.20;0.20;;;22.90;99.90;;;;;;5059262;28;20055;-81
2022/08/11 09:28:29;;;;;;;0.20;0.20;;;23.20;99.90;;;;;;5053189;28;20049;-79
2022/08/11 09:30:56;;;;;;;0.30;0.30;;;23.20;99.90;;;;;;5055935;28;20435;-79
2022/08/11 09:33:24;;;;;;;0.25;0.25;;;23.30;99.90;;;;;;5052316;28;20408;-76
2022/08/11 09:35:51;;;;;;;0.20;0.20;;;23.40;99.90;;;;;;5053586;28;20041;-76
2022/08/11 09:41:06;;;;;;;0.20;0.20;;;23.50;99.90;;;;;;5071450;28;20044;-76
2022/08/11 09:46:26;;;;;;;0.20;0.20;;;23.70;99.90;;;;;;5051267;28;20052;-76
2022/08/11 09:48:55;;;;;;;0.20;0.20;;;23.80;99.90;;;;;;5053160;28;20056;-79
2022/08/11 09:51:21;;;;;;;0.30;0.30;;;23.80;99.90;;;;;;5069053;28;20468;-80
2022/08/11 09:53:48;;;;;;;0.10;0.10;;;23.90;99.90;;;;;;5061584;28;20040;-80
2022/08/11 09:59:07;;;;;;;0.20;0.20;;;24.00;99.90;;;;;;5054795;28;20527;-80
2022/08/11 10:01:48;;;;;;;0.20;0.20;;;24.00;99.90;;;;;;5055801;28;20052;-80
2022/08/11 10:04:23;;;;;;;0.30;0.30;;;24.20;99.60;;;;;;5049918;28;20052;-79
2022/08/11 10:07:01;;;;;;;0.20;0.20;;;24.20;99.40;;;;;;5050655;28;20496;-78
2022/08/11 10:10:21;;;;;;;0.20;0.20;;;24.30;99.30;;;;;;5056389;28;20503;-79
2022/08/11 10:12:49;;;;;;;0.20;0.20;;;24.40;98.70;;;;;;5017703;28;20179;-79
2022/08/11 10:21:05;;;;;;;0.20;0.20;;;24.70;97.70;;;;;;5051004;28;20052;-79
2022/08/11 10:33:58;;;;;;;0.20;0.20;;;24.90;96.50;;;;;;5054299;28;20048;-79
2022/08/11 10:34:42;;;;;;;0.20;0.20;;;25.00;95.60;;;;;;5054818;28;20049;-79
2022/08/11 10:37:08;;;;;;;0.20;0.20;;;25.10;95.10;;;;;;5053298;28;20499;-78
2022/08/11 10:39:36;;;;;;;0.20;0.20;;;25.20;95.50;;;;;;5049804;28;20041;-79
2022/08/11 10:44:51;;;;;;;0.30;0.30;;;25.30;94.80;;;;;;5054191;28;20340;-80
2022/08/11 10:47:35;;;;;;;0.20;0.20;;;25.40;94.60;;;;;;5060997;28;20115;-79
2022/08/11 11:01:23;;;;;;;0.20;0.20;;;25.60;94.10;;;;;;5066554;28;20132;-79
2022/08/11 11:04:13;;;;;;;0.20;0.20;;;25.70;93.80;;;;;;5064665;28;20122;-79
2022/08/11 11:07:12;;;;;;;0.20;0.20;;;25.80;93.90;;;;;;5049315;28;20052;-80
2022/08/11 11:09:46;;;;;;;0.25;0.25;;;25.80;93.50;;;;;;5059515;28;20036;-80
2022/08/11 11:18:10;;;;;;;0.20;0.20;;;26.00;93.20;;;;;;5057333;28;20385;-80
2022/08/11 11:21:05;;;;;;;0.30;0.30;;;26.10;93.10;;;;;;5059568;28;20037;-79
2022/08/11 11:24:11;;;;;;;0.20;0.20;;;26.10;92.70;;;;;;5057724;28;20060;-79
2022/08/11 11:26:49;;;;;;;0.20;0.20;;;26.20;91.90;;;;;;5058342;28;21534;-79
2022/08/11 11:29:54;;;;;;;0.20;0.20;;;26.30;91.30;;;;;;5063892;28;20060;-79
2022/08/11 11:32:50;;;;;;;0.22;0.22;;;26.50;91.20;;;;;;5052721;28;20044;-80
2022/08/11 11:35:25;;;;;;;0.30;0.30;;;26.60;89.50;;;;;;5065654;28;20059;-80
2022/08/11 11:37:52;;;;;;;0.20;0.20;;;26.80;90.80;;;;;;5071436;28;20041;-80
2022/08/11 11:40:20;;;;;;;0.20;0.20;;;26.90;90.10;;;;;;5066812;28;20076;-78
2022/08/11 11:42:47;;;;;;;0.20;0.20;;;26.80;89.80;;;;;;5066871;28;20080;-81
2022/08/11 11:45:24;;;;;;;0.20;0.20;;;27.00;90.20;;;;;;5048132;28;20489;-79
2022/08/11 11:47:52;;;;;;;0.28;0.28;;;27.10;90.30;;;;;;5057006;28;20451;-84
2022/08/11 11:50:36;;;;;;;0.20;0.20;;;27.10;89.10;;;;;;5059719;28;20075;-81
2022/08/11 11:53:07;;;;;;;0.20;0.20;;;27.20;88.60;;;;;;5066301;28;20068;-79
2022/08/11 11:55:34;;;;;;;0.20;0.20;;;27.20;88.90;;;;;;5056938;28;20037;-79
2022/08/11 12:03:33;;;;;;;0.20;0.20;;;27.40;87.90;;;;;;5058510;28;20507;-79
2022/08/11 12:05:59;;;;;;;0.20;0.20;;;27.50;87.60;;;;;;5062087;28;20055;-80
2022/08/11 12:08:26;;;;;;;0.20;0.20;;;27.60;87.00;;;;;;5069261;28;20048;-80
2022/08/11 12:13:45;;;;;;;0.30;0.30;;;27.80;86.70;;;;;;5068604;28;20135;-79
2022/08/11 12:16:14;;;;;;;0.20;0.20;;;27.80;86.20;;;;;;5069178;28;20052;-79
2022/08/11 12:18:41;;;;;;;0.20;0.20;;;27.90;86.00;;;;;;5055343;28;20159;-79
2022/08/11 12:21:09;;;;;;;0.30;0.30;;;28.00;86.50;;;;;;5089629;28;20147;-79
2022/08/11 12:29:10;;;;;;;0.22;0.22;;;28.30;86.30;;;;;;5069867;28;20075;-78
2022/08/11 12:31:38;;;;;;;0.20;0.20;;;28.40;84.00;;;;;;5066529;28;20094;-80
2022/08/11 12:34:07;;;;;;;0.30;0.30;;;28.50;83.90;;;;;;5069348;28;20476;-81
2022/08/11 12:36:37;;;;;;;0.20;0.20;;;28.60;83.80;;;;;;5061769;28;20060;-81
2022/08/11 12:39:08;;;;;;;0.20;0.20;;;28.70;83.60;;;;;;5086920;28;20170;-80
2022/08/11 12:47:18;;;;;;;0.25;0.25;;;29.00;82.90;;;;;;5066109;28;20481;-81
2022/08/11 12:52:36;;;;;;;0.30;0.30;;;29.20;83.60;;;;;;5071135;28;20076;-80
2022/08/11 12:55:07;;;;;;;;;;;29.30;83.30;;;;;;5066125;28;20224;-79
2022/08/11 13:06:04;;;;;;;0.25;0.25;;;29.70;79.90;;;;;;5056020;28;20056;-79
2022/08/11 13:08:34;;;;;;;0.20;0.20;;;29.90;78.70;;;;;;5079187;28;20044;-78
2022/08/11 13:13:51;;;;;;;0.20;0.20;;;30.00;78.40;;;;;;5081012;28;20314;-79
2022/08/11 13:16:17;;;;;;;0.30;0.30;;;30.00;78.00;;;;;;5077354;28;20408;-79
2022/08/11 13:18:43;;;;;;;0.20;0.20;;;30.10;78.30;;;;;;5090083;28;20369;-79
2022/08/11 13:21:11;;;;;;;0.20;0.20;;;30.20;77.90;;;;;;5071033;28;20070;-79
2022/08/11 13:23:38;;;;;;;0.20;0.20;;;30.20;77.40;;;;;;5068791;28;20094;-79
2022/08/11 13:26:07;;;;;;;0.20;0.20;;;30.30;76.20;;;;;;5060842;28;20671;-79
2022/08/11 13:28:35;;;;;;;0.20;0.20;;;30.30;75.20;;;;;;5068339;28;20414;-80
2022/08/11 13:31:10;;;;;;;0.20;0.20;;;30.30;74.70;;;;;;5070675;28;20055;-79
2022/08/11 13:33:50;;;;;;;0.20;0.20;;;30.40;74.40;;;;;;5064256;28;20330;-79
2022/08/11 13:36:19;;;;;;;0.20;0.20;;;30.40;73.60;;;;;;5070314;28;20737;-79
2022/08/11 13:38:46;;;;;;;0.20;0.20;;;30.40;72.80;;;;;;5086213;28;20048;-80
2022/08/11 13:43:58;;;;;;;0.25;0.25;;;30.50;72.40;;;;;;5081695;28;20397;-79
2022/08/11 13:46:26;;;;;;;0.20;0.20;;;30.50;72.20;;;;;;5070770;28;20045;-81
2022/08/11 13:48:54;;;;;;;0.35;0.35;;;30.50;71.60;;;;;;5063333;28;20061;-79
2022/08/11 13:51:30;;;;;;;0.20;0.20;;;30.50;72.20;;;;;;5058112;28;20040;-79
2022/08/11 13:53:59;;;;;;;0.20;0.20;;;30.60;72.70;;;;;;5056707;28;20043;-79
2022/08/11 13:56:26;;;;;;;0.30;0.30;;;30.60;71.80;;;;;;5077779;28;20068;-79
2022/08/11 13:58:54;;;;;;;0.20;0.20;;;30.60;71.40;;;;;;5077027;28;20117;-79
2022/08/11 14:01:20;;;;;;;0.20;0.20;;;30.60;70.40;;;;;;5069902;28;20087;-80
2022/08/11 14:03:48;;;;;;;0.20;0.20;;;30.50;70.80;;;;;;5071666;28;20068;-79
2022/08/11 14:06:16;;;;;;;0.20;0.20;;;30.50;71.50;;;;;;5074643;28;20119;-78
2022/08/11 14:08:43;;;;;;;0.20;0.20;;;30.50;71.30;;;;;;5069197;28;20044;-79
2022/08/11 14:13:56;;;;;;;0.20;0.20;;;30.60;71.30;;;;;;5071460;28;20044;-78
2022/08/11 14:16:28;;;;;;;0.20;0.20;;;30.60;71.10;;;;;;5069723;28;20089;-79
2022/08/11 14:18:59;;;;;;;0.20;0.20;;;30.60;70.80;;;;;;5065481;28;20037;-80
2022/08/11 14:24:15;;;;;;;0.20;0.20;;;30.70;71.60;;;;;;5062750;28;20076;-79
2022/08/11 14:26:42;;;;;;;0.20;0.20;;;30.80;71.90;;;;;;5053112;28;20048;-79
2022/08/11 14:29:14;;;;;;;0.20;0.20;;;30.90;72.30;;;;;;5062767;28;20051;-79
2022/08/11 14:31:47;;;;;;;0.30;0.30;;;31.00;71.70;;;;;;5061762;28;20052;-79
2022/08/11 14:34:17;;;;;;;0.20;0.20;;;31.10;71.50;;;;;;5068972;28;20547;-79
2022/08/11 14:36:45;;;;;;;;;;;31.10;70.80;;;;;;5053495;28;20056;-79
2022/08/11 14:39:16;;;;;;;0.20;0.20;;;31.10;70.70;;;;;;5080795;28;20296;-78
2022/08/11 14:47:18;;;;;;;0.30;0.30;;;31.20;70.40;;;;;;5069163;28;20045;-79
2022/08/11 14:49:44;;;;;;;0.20;0.20;;;31.10;69.70;;;;;;5063353;28;20094;-79
2022/08/11 14:52:14;;;;;;;0.20;0.20;;;31.20;68.70;;;;;;5061713;28;20059;-79
2022/08/11 14:57:29;;;;;;;0.20;0.20;;;31.30;69.50;;;;;;5053572;28;20045;-79
2022/08/11 14:59:59;;;;;;;0.20;0.20;;;31.40;68.60;;;;;;5067424;28;20062;-79
2022/08/11 15:05:10;;;;;;;0.20;0.20;;;31.70;69.90;;;;;;5065838;28;20127;-79
2022/08/11 15:07:37;;;;;;;0.20;0.20;;;31.80;68.90;;;;;;5067467;28;20099;-79
2022/08/11 15:10:07;;;;;;;0.20;0.20;;;32.10;68.20;;;;;;5047980;28;20059;-80
2022/08/11 15:12:35;;;;;;;0.20;0.20;;;32.90;69.70;;;;;;5058232;28;20033;-80
2022/08/11 15:17:50;;;;;;;0.30;0.30;;;34.80;67.70;;;;;;5047880;28;20049;-79
2022/08/11 15:26:00;;;;;;;0.30;0.30;;;37.60;66.40;;;;;;5060721;28;20041;-78
2022/08/11 15:46:01;;;;;;;0.38;0.38;;;43.00;56.00;;;;;;5060967;28;20066;-79
2022/08/11 15:48:32;;;;;;;0.40;0.40;;;42.80;53.90;;;;;;5068425;28;20389;-78
2022/08/11 15:51:08;;;;;;;0.40;0.40;;;42.80;54.90;;;;;;5059238;28;20491;-79
2022/08/11 15:53:45;;;;;;;0.40;0.40;;;43.50;55.40;;;;;;5059569;28;20045;-78
2022/08/11 15:56:12;;;;;;;0.40;0.40;;;44.30;54.20;;;;;;5072128;28;20048;-78
2022/08/11 16:04:20;;;;;;;0.30;0.30;;;43.40;50.30;;;;;;5070898;28;20102;-79
2022/08/11 16:07:10;;;;;;;0.30;0.30;;;42.20;50.40;;;;;;5073209;28;20043;-78
2022/08/11 16:09:56;;;;;;;0.30;0.30;;;41.30;50.40;;;;;;5061268;28;20041;-78
2022/08/11 16:12:27;;;;;;;0.30;0.30;;;40.30;50.90;;;;;;5069510;28;20075;-79
2022/08/11 16:17:50;;;;;;;0.30;0.30;;;38.20;51.10;;;;;;5063008;28;20052;-78
2022/08/11 16:20:23;;;;;;;0.30;0.30;;;37.10;52.00;;;;;;5069232;28;20411;-78
2022/08/11 16:22:54;;;;;;;0.30;0.30;;;36.20;52.60;;;;;;5064946;28;20116;-77
2022/08/11 16:25:23;;;;;;;0.30;0.30;;;35.30;53.00;;;;;;5067396;28;20610;-78
2022/08/11 16:28:00;;;;;;;0.20;0.20;;;34.60;54.20;;;;;;5052841;28;20420;-79
2022/08/11 16:30:28;;;;;;;0.20;0.20;;;33.90;54.60;;;;;;5067229;28;20057;-79
2022/08/11 16:32:55;;;;;;;0.20;0.20;;;33.30;55.40;;;;;;5052737;28;20163;-77
2022/08/11 16:40:56;;;;;;;0.20;0.20;;;31.90;57.00;;;;;;5070681;28;20057;-79
2022/08/11 16:48:59;;;;;;;0.20;0.20;;;31.10;58.40;;;;;;5063590;28;20044;-79
2022/08/11 16:51:24;;;;;;;0.20;0.20;;;30.90;58.90;;;;;;5053757;28;20059;-79
2022/08/11 16:53:51;;;;;;;0.20;0.20;;;30.70;59.00;;;;;;5067429;28;20037;-78
2022/08/11 16:56:24;;;;;;;0.20;0.20;;;30.40;59.10;;;;;;5055568;28;20468;-79
2022/08/11 16:59:13;;;;;;;0.20;0.20;;;30.20;59.40;;;;;;5052797;28;20094;-78
2022/08/11 17:01:41;;;;;;;0.20;0.20;;;29.90;60.30;;;;;;5060039;28;20064;-77
2022/08/11 17:13:09;;;;;;;0.20;0.20;;;29.10;60.60;;;;;;5072093;28;20060;-78
2022/08/11 17:16:11;;;;;;;0.20;0.20;;;28.90;61.00;;;;;;5063257;28;20136;-78
2022/08/11 17:18:44;;;;;;;0.20;0.20;;;28.70;61.20;;;;;;5068358;28;20045;-78
2022/08/11 17:21:28;;;;;;;0.20;0.20;;;28.50;61.70;;;;;;5070750;28;20067;-79
2022/08/11 17:23:58;;;;;;;0.20;0.20;;;28.40;62.20;;;;;;5070033;28;20044;-78
2022/08/11 17:26:26;;;;;;;0.30;0.30;;;28.20;62.40;;;;;;5070457;28;20627;-78
2022/08/11 17:28:58;;;;;;;0.20;0.20;;;28.10;62.70;;;;;;5071041;28;20040;-78
2022/08/11 17:36:58;;;;;;;0.20;0.20;;;27.80;63.20;;;;;;5068342;28;20060;-79
2022/08/11 17:39:28;;;;;;;0.20;0.20;;;27.70;63.50;;;;;;5069538;28;20484;-78
2022/08/11 17:50:12;;;;;;;0.20;0.20;;;27.30;64.10;;;;;;5051778;28;20053;-80
2022/08/11 18:00:59;;;;;;;0.20;0.20;;;27.00;64.80;;;;;;5074966;28;20521;-77
2022/08/11 18:03:31;;;;;;;0.20;0.20;;;27.00;64.80;;;;;;5067860;28;20045;-78
2022/08/11 18:06:00;;;;;;;0.20;0.20;;;26.90;65.00;;;;;;5068424;28;20045;-79
